x

Yucatan Basin - 120 Nm Ese Of Cozumel, Mx (42056) Wave Buoy

11:50 - Tue 30th Jun 2015 All times are CDT. -5 hours from GMT.

  • Sig Wave height 3.9ft
  • Swell Direction
  • Peak Period 7s
  • Average Period 5s
  • Wind
    13mph, 16mph gusts
  • Sea Temp 84°f
  • Luft Temp 84°f
  • Sea Pressure 1017.5mb
  •  Yucatan Basin - 120 Nm Ese Of Cozumel, Mx
  •  Yucatan Basin - 120 Nm Ese Of Cozumel, Mx

More Historic Weather Station data

Upgrade to MSW Pro to gain access to the past 30 days of data for over 8000 Wavebouys and Weather Stations around the globe.

Join Pro

Comparision Forecast

View Surf forecast
   
Di 06/30 11:50 4ft 7s 5s 13 16 mph 1017.5mb 84f 84f
10:50 4ft 9s 5s 16 18 mph 1017.7mb 84f 84f
9:50 4ft 6s 5s 16 18 mph 1017.1mb 84f 84f
8:50 4.5ft 7s 5s 13 16 mph 1016.7mb 84f 84f
7:50 4.5ft 6s 5s 13 16 mph 1016.7mb 84f 84f
6:50 4ft 7s 5s 13 16 mph 1016.7mb 84f 84f
5:50 4.5ft 10s 5s 9 11 mph 1016.4mb 84f 84f
4:50 4.5ft 8s 5s 11 13 mph 1016.4mb 85f 84f
3:50 4ft 7s 5s 13 16 mph 1016.6mb 85f 84f
2:50 4ft 7s 5s 16 18 mph 1016.5mb 84f 84f
1:50 3.5ft 6s 5s 16 18 mph 1016.9mb 84f 84f
12:50 4ft 9s 5s 16 18 mph 1017.4mb 84f 84f
11:50 3.5ft 5s 4s 16 18 mph 1017.6mb 84f 84f
10:50 3.5ft 6s 5s 16 18 mph 1017.7mb 84f 84f
9:50 3.5ft 6s 5s 16 18 mph 1017.6mb 84f 84f
8:50 3.5ft 6s 5s 13 16 mph 1017.8mb 84f 84f
7:50 3.5ft 9s 5s 16 18 mph 1017.5mb 84f 84f
6:50 3.5ft 5s 4s 16 18 mph 1017.1mb 84f 84f
5:50 4ft 9s 5s 18 20 mph 1016.5mb 84f 84f
4:50 3.5ft 10s 5s 16 20 mph 1016.3mb 84f 84f
3:50 3.5ft 8s 5s 16 20 mph 1016.2mb 84f 84f
2:50 3.5ft 9s 5s 18 22 mph 1016.3mb 84f 84f
1:50 3.5ft 9s 5s 13 16 mph 1016.9mb 84f 84f
12:50 3.5ft 9s 5s 16 18 mph 1017.7mb 84f 84f
Mo 06/29 11:50 4ft 9s 5s 16 18 mph 1018.2mb 84f 84f
10:50 3.5ft 9s 5s 18 20 mph 1018.3mb 84f 84f
9:50 3.5ft 5s 5s 16 18 mph 1017.5mb 84f 84f
8:50 3.5ft 8s 5s 16 18 mph 1016.9mb 84f 84f
7:50 4.5ft 9s 5s 16 18 mph 1016.2mb 84f 85f
6:50 4ft 9s 5s 16 18 mph 1016.1mb 84f 84f
5:50 4ft 9s 5s 18 20 mph 1015.9mb 84f 84f
4:50 4ft 5s 5s 16 18 mph 1015.8mb 84f 85f
3:50 4ft 9s 5s 16 20 mph 1016.2mb 84f 85f
2:50 4ft 6s 5s 16 18 mph 1016.7mb 84f 85f
1:50 4ft 9s 5s 16 18 mph 1017.1mb 84f 84f
12:50 4.5ft 9s 5s 16 18 mph 1017.2mb 84f 84f
11:50 4ft 9s 5s 16 18 mph 1017.3mb 84f 84f
10:50 4ft 9s 5s 16 18 mph 1017.5mb 84f 84f
9:50 4ft 5s 5s 16 18 mph 1017.2mb 84f 84f
8:50 4ft 9s 5s 16 18 mph 1016.5mb 84f 84f
7:50 4ft 9s 4s 18 20 mph 1016mb 84f 84f
6:50 3.5ft 10s 4s 16 20 mph 1015.8mb 84f 84f
5:50 4ft 7s 5s 18 20 mph 1015.3mb 84f 84f
4:50 4ft 8s 5s 16 20 mph 1015.4mb 84f 84f
3:50 4.5ft 9s 5s 16 18 mph 1015.4mb 84f 84f
2:50 4ft 9s 5s 16 18 mph 1015.9mb 84f 84f
1:50 3.5ft 7s 5s 16 18 mph 1016.4mb 84f 84f
12:50 4ft 7s 5s 16 20 mph 1017mb 84f 84f
So 06/28 11:50 3.5ft 7s 5s 16 18 mph 1017.4mb 84f 84f
10:50 3.5ft 5s 5s 18 20 mph 1017.4mb 84f 84f
9:50 3.5ft 5s 5s 18 20 mph 1016.9mb 84f 84f
8:50 3ft 8s 5s 16 18 mph 1016.8mb 84f 84f
7:50 3.5ft 7s 5s 4 7 mph 1017mb 84f 82f
6:50 3.5ft 9s 5s 18 20 mph 1016.1mb 84f 81f
5:50 3ft 7s 5s 16 22 mph 1015.7mb 84f 83f
4:50 3.5ft 5s 5s 9 11 mph 1015.7mb 84f 84f
3:50 3.5ft 9s 5s 11 13 mph 1016mb 84f 84f
2:50 3.5ft 7s 5s 11 13 mph 1016mb 84f 84f
1:50 3.5ft 9s 5s 13 16 mph 1016.5mb 84f 84f
12:50 3.5ft 9s 5s 16 18 mph 1016.8mb 84f 83f
11:50 3.5ft 9s 5s 16 18 mph 1017.1mb 84f 83f
10:50 3.5ft 8s 5s 13 16 mph 1017.1mb 84f 83f
9:50 3.5ft 9s 5s 11 13 mph 1017mb 84f 83f
8:50 3.5ft 8s 5s 13 16 mph 1016.7mb 83f 83f
7:50 3.5ft 8s 5s 13 16 mph 1016.3mb 83f 83f
6:50 3.5ft 10s 5s 13 16 mph 1015.8mb 83f 83f
5:50 3.5ft 9s 5s 11 13 mph 1015.3mb 83f 83f
4:50 3.5ft 10s 5s 11 13 mph 1015.1mb 84f 83f
3:50 4ft 8s 5s 13 16 mph 1015.3mb 84f 83f
2:50 4ft 9s 5s 16 18 mph 1015.3mb 84f 83f
1:50 4ft 10s 5s 16 18 mph 1015.8mb 84f 83f
12:50 3.5ft 10s 5s 16 20 mph 1016.4mb 84f 83f
Sa 06/27 11:50 3.5ft 10s 5s 16 18 mph 1017mb 84f 83f
10:50 4ft 9s 5s 16 18 mph 1017.1mb 84f 83f
9:50 3.5ft 9s 5s 13 18 mph 1016.8mb 84f 83f
8:50 3.5ft 10s 5s 13 16 mph 1016.3mb 84f 83f
7:50 3.5ft 10s 5s 16 20 mph 1015.8mb 84f 84f
6:50 4ft 10s 5s 16 20 mph 1015.8mb 84f 84f
5:50 4ft 10s 5s 16 18 mph 1015.4mb 84f 84f
4:50 4ft 10s 5s 13 16 mph 1015.7mb 84f 84f
3:50 4ft 9s 5s 13 16 mph 1015.8mb 84f 84f
2:50 3.5ft 9s 5s 13 16 mph 1016.2mb 84f 84f
1:50 4ft 10s 6s 13 16 mph 1016.9mb 84f 83f
12:50 4.5ft 10s 6s 13 16 mph 1017.1mb 84f 83f
11:50 4ft 7s 6s 11 13 mph 1017.2mb 84f 83f
10:50 4ft 8s 6s 13 16 mph 1017.2mb 84f 83f
9:50 4.5ft 8s 6s 13
mph
1017.2mb 83f 83f
8:50 4.5ft 7s 6s 11 13 mph 1017mb 83f 83f
7:50 4.5ft 8s 6s 9 11 mph 1016.9mb 83f 83f
6:50 4.5ft 8s 6s 7 11 mph 1016.5mb 83f 83f